Kezdőlap
METAR-TAF:

METAR-TAF

Repülőterek :

Miri, Malajzia

földrajzi szélesség: 04-20N, földrajzi hosszúság: 113-59E, magasság: 17 m

Jelenlegi meteorológiai megfigyelések

A jelentés 52 perccel ezelõtt készült, 15:00 UTC
Déli szél 6 kt
Hőmérséklet 26°C
Páratartalom 94%
Légköri nyomás 1012 hPa
Látótávolság 10 km, vagy több
Szórványos felhőzet 1400 lábon
Szakadozott felhőzet 15000 lábon
enyhe esõ

METAR: WBGR 011500Z 19006KT 9999 -RA SCT014 BKN150 26/25 Q1012

Idő: 23:52 (15:52 UTC)

Előrejelzés

A jelentés 4 órával és 52 perccel ezelõtt készült, 11:00 UTC
Az előrejelzés 01-én 12 óra UTC és 02-én 12 óra UTC között érvényes
Nyugat-délnyugati szél 5 kt
Látótávolság 10 km, vagy több
Szórványos felhőzet 1600 lábon
01-én 19 óra UTC és 01-én 23 óra UTC között ideiglenes
Látótávolság: 4000 m
Kevés felhő 500 lábon
Szórványos felhőzet 1400 lábon
esõ

TAF: WBGR 011100Z 0112/0212 25005KT 9999 SCT016 TEMPO 0119/0123 4000 RA FEW005 SCT014

Meteorológiai megfigyelések és előrejelzések több, mint 4000 repülőtéren (METAR és TAF jelentéseket).

A térképen piros és sárga pontok jelzik az elérhető meteorológiai állomásokat.

Mozgassa az egeret a pont fölött, hogy megjelenjen az állomás neve.

Azután kattintson az időjárási megfigyelések és előrejelzések megtekintéséhez.

A térkép megváltoztatása: kattintson a fekete keresztel jelölt zöld gombra ráközelítéshez, a vonallal jelölt zöld gombra távolításhoz, vagy a zöld nyilakra a szomszédos térképek eléréséhez.


METAR-TAF: